Time;durP1;ratioP1;P1;durP2;ratioP2;P2;SDS_P1;SDS_P2;PMS_P1;PMS_P2;Temp;Humidity;BMP_temperature;BMP_pressure;BME280_temperature;BME280_humidity;BME280_pressure;Samples;Min_cycle;Max_cycle;Signal;HPM_P1;HPM_P2
2023/01/16 00:00:07;;;;;;;0.20;0.20;;;;;;;;;;4981224;28;20038;-76
2023/01/16 00:02:32;;;;;;;0.20;0.20;;;;;;;;;;4985533;28;20030;-76
2023/01/16 00:04:58;;;;;;;0.20;0.20;;;;;;;;;;4988654;28;20049;-75
2023/01/16 00:07:23;;;;;;;0.10;0.10;;;;;;;;;;4985965;28;20449;-75
2023/01/16 00:09:48;;;;;;;0.17;0.17;;;;;;;;;;4992500;28;20117;-76
2023/01/16 00:12:13;;;;;;;0.20;0.20;;;;;;;;;;4987887;28;20737;-76
2023/01/16 00:14:38;;;;;;;0.20;0.20;;;;;;;;;;4984376;28;20037;-75
2023/01/16 00:17:04;;;;;;;0.20;0.20;;;;;;;;;;4981650;28;20038;-76
2023/01/16 00:19:29;;;;;;;0.20;0.20;;;;;;;;;;5001183;28;20032;-76
2023/01/16 00:21:54;;;;;;;0.10;0.10;;;;;;;;;;4981429;28;20101;-75
2023/01/16 00:24:19;;;;;;;0.20;0.20;;;;;;;;;;4980375;28;20066;-76
2023/01/16 00:26:44;;;;;;;0.10;0.10;;;;;;;;;;4982045;28;20030;-76
2023/01/16 00:29:09;;;;;;;0.20;0.20;;;;;;;;;;4984626;28;20366;-76
2023/01/16 00:31:35;;;;;;;0.10;0.10;;;;;;;;;;4983284;28;20536;-76
2023/01/16 00:34:00;;;;;;;0.20;0.20;;;;;;;;;;4983015;28;20038;-75
2023/01/16 00:36:25;;;;;;;0.20;0.20;;;;;;;;;;4981314;28;20034;-76
2023/01/16 00:38:50;;;;;;;0.20;0.20;;;;;;;;;;4982549;28;20275;-75
2023/01/16 00:41:16;;;;;;;0.17;0.17;;;;;;;;;;4984693;28;20280;-76
2023/01/16 00:43:41;;;;;;;0.20;0.20;;;;;;;;;;4978015;28;20030;-76
2023/01/16 00:46:06;;;;;;;0.20;0.20;;;;;;;;;;4980880;28;20038;-76
2023/01/16 00:48:32;;;;;;;0.20;0.20;;;;;;;;;;4982367;28;20030;-76
2023/01/16 00:50:57;;;;;;;0.20;0.20;;;;;;;;;;4983728;28;20461;-78
2023/01/16 00:53:22;;;;;;;0.20;0.20;;;;;;;;;;4982531;28;20276;-76
2023/01/16 00:55:47;;;;;;;0.20;0.20;;;;;;;;;;4981404;28;20268;-76
2023/01/16 00:58:12;;;;;;;0.10;0.10;;;;;;;;;;4982703;28;20275;-76
2023/01/16 01:00:38;;;;;;;0.20;0.20;;;;;;;;;;4987880;28;20274;-76
2023/01/16 01:03:04;;;;;;;0.10;0.10;;;;;;;;;;4980675;28;20026;-76
2023/01/16 01:05:29;;;;;;;0.20;0.20;;;;;;;;;;4979201;28;20030;-76
2023/01/16 01:07:54;;;;;;;0.20;0.20;;;;;;;;;;4988397;28;20068;-76
2023/01/16 01:10:20;;;;;;;0.20;0.20;;;;;;;;;;4984054;28;20461;-76
2023/01/16 01:12:45;;;;;;;0.13;0.13;;;;;;;;;;4980168;28;20031;-76
2023/01/16 01:15:10;;;;;;;0.20;0.20;;;;;;;;;;4983378;28;20042;-76
2023/01/16 01:17:35;;;;;;;0.20;0.20;;;;;;;;;;4988454;28;20286;-76
2023/01/16 01:20:01;;;;;;;0.10;0.10;;;;;;;;;;4984168;28;20053;-75
2023/01/16 01:22:26;;;;;;;0.20;0.20;;;;;;;;;;4982202;28;20030;-76
2023/01/16 01:24:52;;;;;;;0.20;0.20;;;;;;;;;;4982327;28;20057;-76
2023/01/16 01:27:17;;;;;;;0.20;0.20;;;;;;;;;;4986796;28;20041;-76
2023/01/16 01:29:42;;;;;;;0.10;0.10;;;;;;;;;;4984046;28;20031;-76
2023/01/16 01:32:08;;;;;;;0.20;0.20;;;;;;;;;;4978580;28;20041;-76
2023/01/16 01:34:33;;;;;;;0.20;0.20;;;;;;;;;;4974699;28;20021;-75
2023/01/16 01:37:00;;;;;;;0.20;0.20;;;;;;;;;;4974012;28;20130;-76
2023/01/16 01:39:25;;;;;;;0.20;0.20;;;;;;;;;;4978506;28;20073;-75
2023/01/16 01:41:50;;;;;;;0.20;0.20;;;;;;;;;;4977623;28;20030;-75
2023/01/16 01:44:38;;;;;;;0.20;0.20;;;;;;;;;;4984026;28;20681;-76
2023/01/16 01:47:03;;;;;;;0.22;0.22;;;;;;;;;;4979712;28;20339;-75
2023/01/16 01:49:30;;;;;;;0.20;0.20;;;;;;;;;;4981648;28;20969;-75
2023/01/16 01:51:56;;;;;;;0.20;0.20;;;;;;;;;;4978847;28;20500;-75
2023/01/16 01:54:24;;;;;;;0.25;0.25;;;;;;;;;;4977091;28;20030;-76
2023/01/16 01:56:56;;;;;;;0.20;0.20;;;;;;;;;;4978790;28;20450;-76
2023/01/16 01:59:24;;;;;;;0.17;0.17;;;;;;;;;;4978273;28;20031;-76
2023/01/16 02:01:50;;;;;;;0.20;0.20;;;;;;;;;;4978440;28;20407;-75
2023/01/16 02:04:16;;;;;;;0.20;0.20;;;;;;;;;;4978357;28;20069;-75
2023/01/16 02:06:52;;;;;;;0.20;0.20;;;;;;;;;;4976236;28;20034;-75
2023/01/16 02:09:17;;;;;;;0.20;0.20;;;;;;;;;;4979874;28;20026;-76
2023/01/16 02:11:49;;;;;;;0.20;0.20;;;;;;;;;;4976616;28;20456;-76
2023/01/16 02:14:15;;;;;;;0.20;0.20;;;;;;;;;;4983654;28;20027;-76
2023/01/16 02:19:24;;;;;;;0.28;0.28;;;;;;;;;;4983112;28;20076;-77
2023/01/16 02:22:04;;;;;;;0.20;0.20;;;;;;;;;;4977641;28;20030;-76
2023/01/16 02:24:52;;;;;;;0.20;0.20;;;;;;;;;;4982792;28;20284;-76
2023/01/16 02:27:37;;;;;;;0.20;0.20;;;;;;;;;;4974554;28;20038;-76
2023/01/16 02:30:09;;;;;;;0.20;0.20;;;;;;;;;;4969586;28;20110;-75
2023/01/16 02:32:37;;;;;;;0.20;0.20;;;;;;;;;;4980075;28;20014;-75
2023/01/16 02:35:05;;;;;;;0.20;0.20;;;;;;;;;;4981745;28;20022;-75
2023/01/16 02:37:33;;;;;;;0.20;0.20;;;;;;;;;;4982809;28;20026;-75
2023/01/16 02:39:58;;;;;;;0.20;0.20;;;;;;;;;;4977378;28;20027;-76
2023/01/16 02:42:26;;;;;;;0.20;0.20;;;;;;;;;;4976204;28;20085;-75
2023/01/16 02:44:59;;;;;;;0.20;0.20;;;;;;;;;;4978868;28;20302;-76
2023/01/16 02:47:36;;;;;;;0.10;0.10;;;;;;;;;;4980124;28;20088;-75
2023/01/16 02:50:24;;;;;;;0.20;0.20;;;;;;;;;;4980234;28;20037;-76
2023/01/16 02:52:52;;;;;;;0.20;0.20;;;;;;;;;;4974010;28;20022;-75
2023/01/16 02:55:24;;;;;;;0.20;0.20;;;;;;;;;;4984497;28;20469;-76
2023/01/16 02:57:53;;;;;;;0.20;0.20;;;;;;;;;;4973425;28;20031;-75
2023/01/16 03:00:19;;;;;;;0.25;0.25;;;;;;;;;;4980933;28;20485;-76
2023/01/16 03:02:45;;;;;;;0.20;0.20;;;;;;;;;;4993889;28;20053;-75
2023/01/16 03:05:11;;;;;;;0.20;0.20;;;;;;;;;;4992587;28;20673;-76
2023/01/16 03:07:48;;;;;;;0.20;0.20;;;;;;;;;;4986284;28;20026;-75
2023/01/16 03:10:22;;;;;;;0.20;0.20;;;;;;;;;;4978934;28;20026;-76
2023/01/16 03:12:48;;;;;;;;;;;;;;;;;;4983816;28;20018;-76
2023/01/16 03:15:18;;;;;;;0.20;0.20;;;;;;;;;;4985018;28;19925;-76
2023/01/16 03:17:58;;;;;;;0.30;0.30;;;;;;;;;;4989751;28;20029;-75
2023/01/16 03:20:31;;;;;;;0.20;0.20;;;;;;;;;;4985672;28;20027;-76
2023/01/16 03:23:13;;;;;;;0.20;0.20;;;;;;;;;;4984896;28;20040;-76
2023/01/16 03:25:47;;;;;;;0.20;0.20;;;;;;;;;;4988034;28;20023;-75
2023/01/16 03:28:12;;;;;;;;;;;;;;;;;;4989648;28;20030;-76
2023/01/16 03:30:59;;;;;;;0.20;0.20;;;;;;;;;;4988040;28;19913;-75
2023/01/16 03:33:31;;;;;;;0.20;0.20;;;;;;;;;;4974598;28;20037;-75
2023/01/16 03:35:59;;;;;;;0.20;0.20;;;;;;;;;;4988325;28;20453;-75
2023/01/16 03:38:26;;;;;;;0.20;0.20;;;;;;;;;;4997377;28;20026;-75
2023/01/16 03:40:51;;;;;;;0.20;0.20;;;;;;;;;;4982455;28;20113;-76
2023/01/16 03:43:18;;;;;;;0.20;0.20;;;;;;;;;;4979977;28;20026;-75
2023/01/16 03:45:49;;;;;;;0.20;0.20;;;;;;;;;;4984608;28;20105;-75
2023/01/16 03:48:34;;;;;;;0.20;0.20;;;;;;;;;;4982539;28;20034;-76
2023/01/16 03:51:02;;;;;;;0.20;0.20;;;;;;;;;;4998714;28;20504;-76
2023/01/16 03:53:30;;;;;;;0.17;0.17;;;;;;;;;;4985170;28;20030;-75
2023/01/16 03:56:21;;;;;;;0.20;0.20;;;;;;;;;;4981008;28;20022;-75
2023/01/16 03:58:48;;;;;;;0.20;0.20;;;;;;;;;;4961661;28;20391;-75
2023/01/16 04:01:36;;;;;;;0.20;0.20;;;;;;;;;;4984044;28;20645;-75
2023/01/16 04:04:01;;;;;;;0.20;0.20;;;;;;;;;;4985003;28;20038;-75
2023/01/16 04:06:31;;;;;;;0.20;0.20;;;;;;;;;;4987434;28;20065;-75
2023/01/16 04:08:58;;;;;;;0.20;0.20;;;;;;;;;;4982534;28;20045;-76
2023/01/16 04:11:23;;;;;;;0.20;0.20;;;;;;;;;;4983941;28;20028;-75
2023/01/16 04:13:49;;;;;;;0.20;0.20;;;;;;;;;;4979291;28;21008;-76
2023/01/16 04:16:17;;;;;;;0.20;0.20;;;;;;;;;;4978521;28;20023;-75
2023/01/16 04:18:43;;;;;;;0.20;0.20;;;;;;;;;;4978577;28;20393;-75
2023/01/16 04:21:08;;;;;;;0.20;0.20;;;;;;;;;;4977653;28;20031;-76
2023/01/16 04:23:34;;;;;;;0.20;0.20;;;;;;;;;;4984027;28;20028;-76
2023/01/16 04:25:59;;;;;;;0.20;0.20;;;;;;;;;;4981596;28;20030;-76
2023/01/16 04:28:25;;;;;;;0.20;0.20;;;;;;;;;;4978503;28;20041;-75
2023/01/16 04:30:50;;;;;;;0.20;0.20;;;;;;;;;;4978741;28;20515;-75
2023/01/16 04:33:15;;;;;;;0.20;0.20;;;;;;;;;;4980044;28;20789;-76
2023/01/16 04:35:40;;;;;;;0.20;0.20;;;;;;;;;;4978738;28;20293;-76
2023/01/16 04:38:05;;;;;;;0.20;0.20;;;;;;;;;;4979035;28;20022;-76
2023/01/16 04:40:30;;;;;;;0.20;0.20;;;;;;;;;;4982196;28;20468;-76
2023/01/16 04:42:56;;;;;;;0.20;0.20;;;;;;;;;;4976977;28;20343;-75
2023/01/16 04:45:21;;;;;;;0.30;0.30;;;;;;;;;;4981452;28;20283;-75
2023/01/16 04:47:47;;;;;;;0.20;0.20;;;;;;;;;;4976576;28;20662;-76
2023/01/16 04:50:12;;;;;;;0.20;0.20;;;;;;;;;;4980956;28;20504;-75
2023/01/16 04:52:38;;;;;;;0.20;0.20;;;;;;;;;;4981629;28;20500;-75
2023/01/16 04:55:03;;;;;;;0.20;0.20;;;;;;;;;;4983060;28;20504;-75
2023/01/16 04:57:28;;;;;;;0.20;0.20;;;;;;;;;;4978975;28;20038;-76
2023/01/16 04:59:54;;;;;;;0.20;0.20;;;;;;;;;;4979635;28;20030;-75
2023/01/16 05:02:19;;;;;;;0.20;0.20;;;;;;;;;;4981795;28;20030;-76
2023/01/16 05:04:44;;;;;;;0.20;0.20;;;;;;;;;;4985840;28;20030;-76
2023/01/16 05:07:09;;;;;;;0.20;0.20;;;;;;;;;;4991723;28;20033;-75
2023/01/16 05:09:34;;;;;;;0.20;0.20;;;;;;;;;;4996650;28;20750;-75
2023/01/16 05:11:59;;;;;;;0.20;0.20;;;;;;;;;;4982273;28;20034;-75
2023/01/16 05:14:25;;;;;;;0.30;0.30;;;;;;;;;;4991337;28;20022;-76
2023/01/16 05:16:50;;;;;;;0.20;0.20;;;;;;;;;;4990198;28;20274;-75
2023/01/16 05:19:15;;;;;;;0.30;0.30;;;;;;;;;;4988490;28;20541;-76
2023/01/16 05:21:40;;;;;;;0.20;0.20;;;;;;;;;;4993175;28;20026;-75
2023/01/16 05:24:05;;;;;;;0.20;0.20;;;;;;;;;;4982605;28;20026;-75
2023/01/16 05:26:31;;;;;;;0.20;0.20;;;;;;;;;;4979107;28;20035;-76
2023/01/16 05:28:57;;;;;;;0.20;0.20;;;;;;;;;;4984319;28;20033;-75
2023/01/16 05:31:22;;;;;;;0.20;0.20;;;;;;;;;;4981431;28;20022;-75
2023/01/16 05:33:48;;;;;;;0.20;0.20;;;;;;;;;;4996079;28;20405;-76
2023/01/16 05:36:13;;;;;;;0.20;0.20;;;;;;;;;;4982886;28;20022;-75
2023/01/16 05:38:38;;;;;;;0.20;0.20;;;;;;;;;;4981767;28;20392;-75
2023/01/16 05:41:04;;;;;;;0.20;0.20;;;;;;;;;;4980712;28;20416;-76
2023/01/16 05:43:29;;;;;;;0.10;0.10;;;;;;;;;;4976841;28;20282;-75
2023/01/16 05:45:54;;;;;;;0.20;0.20;;;;;;;;;;4978119;28;20425;-75
2023/01/16 05:48:20;;;;;;;0.20;0.20;;;;;;;;;;4981096;28;20034;-76
2023/01/16 05:50:45;;;;;;;0.20;0.20;;;;;;;;;;4981609;28;20100;-75
2023/01/16 05:53:10;;;;;;;0.10;0.10;;;;;;;;;;4974906;28;20023;-74
2023/01/16 05:55:43;;;;;;;0.20;0.20;;;;;;;;;;4986132;28;20496;-76
2023/01/16 05:58:09;;;;;;;0.20;0.20;;;;;;;;;;4980092;28;20117;-76
2023/01/16 06:00:34;;;;;;;0.20;0.20;;;;;;;;;;4977894;28;20040;-74
2023/01/16 06:02:59;;;;;;;0.13;0.13;;;;;;;;;;4976123;28;20031;-75
2023/01/16 06:05:24;;;;;;;0.10;0.10;;;;;;;;;;4981270;28;20113;-74
2023/01/16 06:07:53;;;;;;;0.20;0.20;;;;;;;;;;4980852;28;20026;-74
2023/01/16 06:10:19;;;;;;;0.20;0.20;;;;;;;;;;4981953;28;20325;-74
2023/01/16 06:12:45;;;;;;;0.20;0.20;;;;;;;;;;4979862;28;20014;-74
2023/01/16 06:15:10;;;;;;;0.20;0.20;;;;;;;;;;4981542;28;20036;-75
2023/01/16 06:17:35;;;;;;;0.20;0.20;;;;;;;;;;4983860;28;21495;-76
2023/01/16 06:20:01;;;;;;;0.20;0.20;;;;;;;;;;4987105;28;20033;-75
2023/01/16 06:22:26;;;;;;;0.10;0.10;;;;;;;;;;4982359;28;20465;-73
2023/01/16 06:24:51;;;;;;;0.20;0.20;;;;;;;;;;5004179;28;20357;-74
2023/01/16 06:27:16;;;;;;;0.20;0.20;;;;;;;;;;4988990;28;20454;-74
2023/01/16 06:29:43;;;;;;;0.20;0.20;;;;;;;;;;4987993;28;20034;-75
2023/01/16 06:32:09;;;;;;;0.20;0.20;;;;;;;;;;4983975;28;20130;-76
2023/01/16 06:34:34;;;;;;;0.20;0.20;;;;;;;;;;4986020;28;20189;-75
2023/01/16 06:37:00;;;;;;;0.20;0.20;;;;;;;;;;4978264;28;20361;-74
2023/01/16 06:39:25;;;;;;;0.20;0.20;;;;;;;;;;4979521;28;20477;-75
2023/01/16 06:41:50;;;;;;;0.20;0.20;;;;;;;;;;4975940;28;20758;-74
2023/01/16 06:44:15;;;;;;;0.10;0.10;;;;;;;;;;4977447;28;20756;-74
2023/01/16 06:46:41;;;;;;;0.20;0.20;;;;;;;;;;4980432;28;20457;-74
2023/01/16 06:49:06;;;;;;;0.13;0.13;;;;;;;;;;4978700;28;20022;-73
2023/01/16 06:51:31;;;;;;;0.20;0.20;;;;;;;;;;4981063;28;20109;-74
2023/01/16 06:53:57;;;;;;;0.10;0.10;;;;;;;;;;4979337;28;20146;-73
2023/01/16 06:56:23;;;;;;;0.20;0.20;;;;;;;;;;4979084;28;20389;-75
2023/01/16 06:58:49;;;;;;;0.20;0.20;;;;;;;;;;4977050;28;20469;-73
2023/01/16 07:01:14;;;;;;;0.20;0.20;;;;;;;;;;4983447;28;20176;-72
2023/01/16 07:03:39;;;;;;;0.20;0.20;;;;;;;;;;4977049;28;20019;-74
2023/01/16 07:06:05;;;;;;;0.10;0.10;;;;;;;;;;4977984;28;20034;-74
2023/01/16 07:08:30;;;;;;;0.20;0.20;;;;;;;;;;4976577;28;20549;-72
2023/01/16 07:10:59;;;;;;;0.20;0.20;;;;;;;;;;4977363;28;20027;-75
2023/01/16 07:13:27;;;;;;;0.17;0.17;;;;;;;;;;4978031;28;20736;-73
2023/01/16 07:24:05;;;;;;;0.20;0.20;;;;;;;;;;4971785;28;20166;-72
2023/01/16 07:26:31;;;;;;;0.20;0.20;;;;;;;;;;4978157;28;20027;-74
2023/01/16 07:28:57;;;;;;;0.10;0.10;;;;;;;;;;4977701;28;20027;-73
2023/01/16 07:31:23;;;;;;;0.20;0.20;;;;;;;;;;4985463;28;20508;-73
2023/01/16 07:33:48;;;;;;;0.13;0.13;;;;;;;;;;4983545;28;20453;-73
2023/01/16 07:36:13;;;;;;;0.10;0.10;;;;;;;;;;5003026;28;20097;-73
2023/01/16 07:38:38;;;;;;;0.20;0.20;;;;;;;;;;4980799;28;20062;-73
2023/01/16 07:41:04;;;;;;;0.10;0.10;;;;;;;;;;4981420;28;21046;-73
2023/01/16 07:43:29;;;;;;;0.10;0.10;;;;;;;;;;4975920;28;20351;-74
2023/01/16 07:45:54;;;;;;;0.20;0.20;;;;;;;;;;4980310;28;20073;-73
2023/01/16 07:48:20;;;;;;;0.10;0.10;;;;;;;;;;4968132;28;20893;-73
2023/01/16 07:50:51;;;;;;;0.20;0.20;;;;;;;;;;4978010;28;20026;-73
2023/01/16 07:53:21;;;;;;;0.20;0.20;;;;;;;;;;4978304;28;20027;-75
2023/01/16 07:55:46;;;;;;;0.20;0.20;;;;;;;;;;4974806;28;20075;-72
2023/01/16 07:58:11;;;;;;;0.10;0.10;;;;;;;;;;4978109;28;20106;-74
2023/01/16 08:00:36;;;;;;;0.20;0.20;;;;;;;;;;4980279;28;20061;-72
2023/01/16 08:03:01;;;;;;;0.20;0.20;;;;;;;;;;4978781;28;20276;-72
2023/01/16 08:05:27;;;;;;;0.20;0.20;;;;;;;;;;4990180;28;20330;-73
2023/01/16 08:07:52;;;;;;;0.20;0.20;;;;;;;;;;4993337;28;20309;-74
2023/01/16 08:10:17;;;;;;;0.10;0.10;;;;;;;;;;4979832;28;20461;-71
2023/01/16 08:12:43;;;;;;;0.20;0.20;;;;;;;;;;4981730;28;20019;-73
2023/01/16 08:15:08;;;;;;;0.20;0.20;;;;;;;;;;4986304;28;20833;-72
2023/01/16 08:17:33;;;;;;;0.20;0.20;;;;;;;;;;4988139;28;20271;-74
2023/01/16 08:19:58;;;;;;;0.20;0.20;;;;;;;;;;4998648;28;20034;-76
2023/01/16 08:22:23;;;;;;;0.20;0.20;;;;;;;;;;4977766;28;20359;-74
2023/01/16 08:24:49;;;;;;;0.15;0.15;;;;;;;;;;4981455;28;20319;-75
2023/01/16 08:27:14;;;;;;;0.20;0.20;;;;;;;;;;4991556;28;20148;-73
2023/01/16 08:29:39;;;;;;;0.20;0.20;;;;;;;;;;4991799;28;20580;-75
2023/01/16 08:32:04;;;;;;;0.20;0.20;;;;;;;;;;4973364;28;20034;-72
2023/01/16 08:34:29;;;;;;;0.10;0.10;;;;;;;;;;4987214;28;20108;-74
2023/01/16 08:36:55;;;;;;;0.20;0.20;;;;;;;;;;4976663;28;20532;-73
2023/01/16 08:39:21;;;;;;;0.20;0.20;;;;;;;;;;4973969;28;20264;-75
2023/01/16 08:52:45;;;;;;;0.20;0.20;;;;;;;;;;4978329;28;20026;-76
2023/01/16 08:55:11;;;;;;;0.10;0.10;;;;;;;;;;4987564;28;20022;-75
2023/01/16 08:57:36;;;;;;;0.20;0.20;;;;;;;;;;4978463;28;20069;-76
2023/01/16 09:00:02;;;;;;;0.20;0.20;;;;;;;;;;4990671;28;20033;-74
2023/01/16 09:02:28;;;;;;;0.10;0.10;;;;;;;;;;4984086;28;20125;-76
2023/01/16 09:04:54;;;;;;;0.20;0.20;;;;;;;;;;4983772;28;20040;-75
2023/01/16 09:07:20;;;;;;;0.20;0.20;;;;;;;;;;4988232;28;20050;-75
2023/01/16 09:09:45;;;;;;;0.20;0.20;;;;;;;;;;4992442;28;20022;-74
2023/01/16 09:14:57;;;;;;;0.20;0.20;;;;;;;;;;4991609;28;20102;-76
2023/01/16 09:17:23;;;;;;;0.20;0.20;;;;;;;;;;4976537;28;20117;-74
2023/01/16 09:19:48;;;;;;;0.20;0.20;;;;;;;;;;4986186;28;20453;-75
2023/01/16 09:22:13;;;;;;;0.20;0.20;;;;;;;;;;4986888;28;20038;-77
2023/01/16 09:24:39;;;;;;;0.20;0.20;;;;;;;;;;4985805;28;20271;-74
2023/01/16 09:27:04;;;;;;;0.20;0.20;;;;;;;;;;4977237;28;20030;-73
2023/01/16 09:29:30;;;;;;;0.20;0.20;;;;;;;;;;4990315;28;20452;-77
2023/01/16 09:31:55;;;;;;;0.10;0.10;;;;;;;;;;4981708;28;20030;-74
2023/01/16 09:34:21;;;;;;;0.10;0.10;;;;;;;;;;4984150;28;20746;-75
2023/01/16 09:36:46;;;;;;;0.20;0.20;;;;;;;;;;4988777;28;20109;-75
2023/01/16 09:39:11;;;;;;;0.15;0.15;;;;;;;;;;4986137;28;20113;-76
2023/01/16 09:44:26;;;;;;;0.20;0.20;;;;;;;;;;4998443;28;20037;-76
2023/01/16 09:46:51;;;;;;;0.10;0.10;;;;;;;;;;4981542;28;20022;-75
2023/01/16 09:49:23;;;;;;;0.10;0.10;;;;;;;;;;4986561;28;20034;-74
2023/01/16 10:00:10;;;;;;;0.20;0.20;;;;;;;;;;4987891;28;20232;-76
2023/01/16 10:02:36;;;;;;;0.20;0.20;;;;;;;;;;4995093;28;20034;-75
2023/01/16 10:05:02;;;;;;;0.20;0.20;;;;;;;;;;4991598;28;20033;-75
2023/01/16 10:07:30;;;;;;;0.20;0.20;;;;;;;;;;4997948;28;20426;-76
2023/01/16 10:10:06;;;;;;;0.20;0.20;;;;;;;;;;5000685;28;20025;-76
2023/01/16 10:12:35;;;;;;;0.20;0.20;;;;;;;;;;4999862;28;20051;-75
2023/01/16 10:15:19;;;;;;;0.15;0.15;;;;;;;;;;4994643;28;20033;-75
2023/01/16 10:17:44;;;;;;;0.20;0.20;;;;;;;;;;4977240;28;20022;-74
2023/01/16 10:20:28;;;;;;;0.20;0.20;;;;;;;;;;4980692;28;20065;-74
2023/01/16 10:23:07;;;;;;;0.20;0.20;;;;;;;;;;4997414;28;20275;-75
2023/01/16 10:25:46;;;;;;;0.10;0.10;;;;;;;;;;4993001;28;20037;-74
2023/01/16 10:28:27;;;;;;;0.20;0.20;;;;;;;;;;4994870;28;20773;-74
2023/01/16 10:31:01;;;;;;;0.20;0.20;;;;;;;;;;4984704;28;20014;-74
2023/01/16 10:33:46;;;;;;;0.20;0.20;;;;;;;;;;4977432;28;20072;-74
2023/01/16 10:36:14;;;;;;;0.20;0.20;;;;;;;;;;4993850;28;20022;-75
2023/01/16 10:38:45;;;;;;;0.20;0.20;;;;;;;;;;4992383;28;20057;-74
2023/01/16 10:49:51;;;;;;;0.10;0.10;;;;;;;;;;4983975;28;20033;-74
2023/01/16 10:52:16;;;;;;;0.20;0.20;;;;;;;;;;4984191;28;20287;-74
2023/01/16 10:54:41;;;;;;;0.20;0.20;;;;;;;;;;4986282;28;20065;-75
2023/01/16 10:57:13;;;;;;;0.20;0.20;;;;;;;;;;4982321;28;20034;-76
2023/01/16 10:59:39;;;;;;;0.20;0.20;;;;;;;;;;4982841;28;20122;-75
2023/01/16 11:02:15;;;;;;;0.20;0.20;;;;;;;;;;4984034;28;20109;-74
2023/01/16 11:04:40;;;;;;;0.10;0.10;;;;;;;;;;4983649;28;20343;-76
2023/01/16 11:07:12;;;;;;;0.20;0.20;;;;;;;;;;4983399;28;20519;-74
2023/01/16 11:09:38;;;;;;;0.10;0.10;;;;;;;;;;4983047;28;20097;-75
2023/01/16 11:20:18;;;;;;;0.20;0.20;;;;;;;;;;4991484;28;20041;-74
2023/01/16 11:22:45;;;;;;;0.10;0.10;;;;;;;;;;4985864;28;20041;-74
2023/01/16 11:25:17;;;;;;;0.10;0.10;;;;;;;;;;4982550;28;20121;-74
2023/01/16 11:27:43;;;;;;;0.10;0.10;;;;;;;;;;4985455;28;20026;-74
2023/01/16 11:30:15;;;;;;;0.17;0.17;;;;;;;;;;4981807;28;20508;-74
2023/01/16 11:32:47;;;;;;;0.10;0.10;;;;;;;;;;4982775;28;20033;-75
2023/01/16 11:35:14;;;;;;;0.20;0.20;;;;;;;;;;4979463;28;20018;-74
2023/01/16 11:37:41;;;;;;;0.10;0.10;;;;;;;;;;4983398;28;20382;-75
2023/01/16 11:40:14;;;;;;;0.10;0.10;;;;;;;;;;4985417;28;20034;-74
2023/01/16 11:48:22;;;;;;;0.10;0.10;;;;;;;;;;4985057;28;20071;-76
2023/01/16 11:50:54;;;;;;;0.10;0.10;;;;;;;;;;4985781;28;20034;-75
2023/01/16 11:53:20;;;;;;;0.10;0.10;;;;;;;;;;5002076;28;20028;-74
2023/01/16 11:55:55;;;;;;;0.20;0.20;;;;;;;;;;4983739;28;20020;-74
2023/01/16 11:58:41;;;;;;;0.13;0.13;;;;;;;;;;4988515;28;20081;-74
2023/01/16 12:01:11;;;;;;;0.10;0.10;;;;;;;;;;4992495;28;20426;-74
2023/01/16 12:03:45;;;;;;;0.10;0.10;;;;;;;;;;4984076;28;20713;-74
2023/01/16 12:06:23;;;;;;;0.10;0.10;;;;;;;;;;4987004;28;20035;-73
2023/01/16 12:08:48;;;;;;;0.10;0.10;;;;;;;;;;4989211;28;20556;-74
2023/01/16 12:11:16;;;;;;;0.17;0.17;;;;;;;;;;4982803;28;20033;-75
2023/01/16 12:14:21;;;;;;;0.20;0.20;;;;;;;;;;4986997;28;20022;-73
2023/01/16 12:17:04;;;;;;;0.20;0.20;;;;;;;;;;4975633;28;20539;-75
2023/01/16 12:19:52;;;;;;;0.20;0.20;;;;;;;;;;4985370;28;20038;-75
2023/01/16 12:22:18;;;;;;;0.20;0.20;;;;;;;;;;4986244;28;20113;-74
2023/01/16 12:24:47;;;;;;;0.10;0.10;;;;;;;;;;4986015;28;20032;-75
2023/01/16 12:27:33;;;;;;;0.10;0.10;;;;;;;;;;4993146;28;20255;-75
2023/01/16 12:30:07;;;;;;;0.10;0.10;;;;;;;;;;4987482;28;20018;-74
2023/01/16 12:32:50;;;;;;;0.10;0.10;;;;;;;;;;4986197;28;20018;-74
2023/01/16 12:35:26;;;;;;;0.10;0.10;;;;;;;;;;4986372;28;20030;-74
2023/01/16 12:37:54;;;;;;;0.20;0.20;;;;;;;;;;4988177;28;20408;-75
2023/01/16 12:40:28;;;;;;;0.10;0.10;;;;;;;;;;4988333;28;20365;-75
2023/01/16 12:43:19;;;;;;;0.10;0.10;;;;;;;;;;4986215;28;20097;-73
2023/01/16 12:46:00;;;;;;;0.10;0.10;;;;;;;;;;4981371;28;20034;-75
2023/01/16 12:48:37;;;;;;;0.10;0.10;;;;;;;;;;4984742;28;20018;-74
2023/01/16 12:51:02;;;;;;;0.10;0.10;;;;;;;;;;4981576;28;20050;-73
2023/01/16 12:53:36;;;;;;;0.17;0.17;;;;;;;;;;4993512;28;20146;-73
2023/01/16 12:56:04;;;;;;;0.20;0.20;;;;;;;;;;4986927;28;20267;-75
2023/01/16 12:58:31;;;;;;;0.10;0.10;;;;;;;;;;4985807;28;20026;-73
2023/01/16 13:01:08;;;;;;;0.10;0.10;;;;;;;;;;4984379;28;20188;-72
2023/01/16 13:03:42;;;;;;;0.20;0.20;;;;;;;;;;4986824;28;20026;-73
2023/01/16 13:06:10;;;;;;;0.13;0.13;;;;;;;;;;4989394;28;20037;-74
2023/01/16 13:08:37;;;;;;;0.10;0.10;;;;;;;;;;4987388;28;20269;-72
2023/01/16 13:14:20;;;;;;;0.13;0.13;;;;;;;;;;4958872;28;20463;-73
2023/01/16 13:16:52;;;;;;;0.10;0.10;;;;;;;;;;4985099;28;20029;-72
2023/01/16 13:19:20;;;;;;;0.10;0.10;;;;;;;;;;4987953;28;20030;-73
2023/01/16 13:21:55;;;;;;;0.10;0.10;;;;;;;;;;4984036;28;20033;-72
2023/01/16 13:24:29;;;;;;;0.10;0.10;;;;;;;;;;4987323;28;20065;-72
2023/01/16 13:27:00;;;;;;;0.17;0.17;;;;;;;;;;4984218;28;20109;-73
2023/01/16 13:29:30;;;;;;;0.20;0.20;;;;;;;;;;4985849;28;20026;-75
2023/01/16 13:31:59;;;;;;;0.10;0.10;;;;;;;;;;4986155;28;20015;-72
2023/01/16 13:34:32;;;;;;;0.10;0.10;;;;;;;;;;4982520;28;20629;-73
2023/01/16 13:37:07;;;;;;;0.20;0.20;;;;;;;;;;4986918;28;20125;-72
2023/01/16 13:39:42;;;;;;;0.20;0.20;;;;;;;;;;4986992;28;20746;-73
2023/01/16 13:42:09;;;;;;;0.17;0.17;;;;;;;;;;4984477;28;20027;-74
2023/01/16 13:47:23;;;;;;;0.10;0.10;;;;;;;;;;4989204;28;20041;-73
2023/01/16 13:49:51;;;;;;;0.20;0.20;;;;;;;;;;4987135;28;20061;-72
2023/01/16 13:52:18;;;;;;;0.10;0.10;;;;;;;;;;4983114;28;20121;-73
2023/01/16 13:54:46;;;;;;;0.20;0.20;;;;;;;;;;4986410;28;20069;-75
2023/01/16 13:57:21;;;;;;;0.20;0.20;;;;;;;;;;4986870;28;20030;-73
2023/01/16 13:59:52;;;;;;;0.10;0.10;;;;;;;;;;4985126;28;20026;-73
2023/01/16 14:02:23;;;;;;;0.10;0.10;;;;;;;;;;4980825;28;20022;-72
2023/01/16 14:05:07;;;;;;;0.10;0.10;;;;;;;;;;4983980;28;20715;-73
2023/01/16 14:10:46;;;;;;;0.20;0.20;;;;;;;;;;4968513;28;20072;-73
2023/01/16 14:13:21;;;;;;;0.10;0.10;;;;;;;;;;4982051;28;20057;-73
2023/01/16 14:18:41;;;;;;;0.10;0.10;;;;;;;;;;4983480;28;20037;-73
2023/01/16 14:21:12;;;;;;;0.10;0.10;;;;;;;;;;4979609;28;20026;-73
2023/01/16 14:26:22;;;;;;;0.10;0.10;;;;;;;;;;4984710;28;20037;-73
2023/01/16 14:28:54;;;;;;;0.10;0.10;;;;;;;;;;4985088;28;20034;-73
2023/01/16 14:31:39;;;;;;;0.20;0.20;;;;;;;;;;4983429;28;20026;-73
2023/01/16 14:34:04;;;;;;;0.10;0.10;;;;;;;;;;4982066;28;20447;-73
2023/01/16 14:36:33;;;;;;;0.20;0.20;;;;;;;;;;4985814;28;20053;-73
2023/01/16 14:38:58;;;;;;;0.13;0.13;;;;;;;;;;4985604;28;20473;-73
2023/01/16 14:56:15;;;;;;;0.20;0.20;;;;;;;;;;4984330;28;20030;-73
2023/01/16 14:58:59;;;;;;;0.10;0.10;;;;;;;;;;4984372;28;20409;-72
2023/01/16 15:04:13;;;;;;;0.20;0.20;;;;;;;;;;4984088;28;20173;-72
2023/01/16 15:06:40;;;;;;;0.10;0.10;;;;;;;;;;4983431;28;20647;-72
2023/01/16 15:09:07;;;;;;;0.10;0.10;;;;;;;;;;4985823;28;20641;-72
2023/01/16 15:11:43;;;;;;;0.10;0.10;;;;;;;;;;4982476;28;20109;-72
2023/01/16 15:22:46;;;;;;;0.20;0.20;;;;;;;;;;4980576;28;20030;-72
2023/01/16 15:25:17;;;;;;;0.10;0.10;;;;;;;;;;4988409;28;20610;-72
2023/01/16 15:27:45;;;;;;;0.10;0.10;;;;;;;;;;4987190;28;20221;-73
2023/01/16 15:30:17;;;;;;;0.10;0.10;;;;;;;;;;4988515;28;20014;-72
2023/01/16 15:33:43;;;;;;;0.10;0.10;;;;;;;;;;4984397;28;20014;-72
2023/01/16 15:35:42;;;;;;;0.10;0.10;;;;;;;;;;4989804;28;20388;-72
2023/01/16 15:38:08;;;;;;;0.10;0.10;;;;;;;;;;4991198;28;20113;-72
2023/01/16 15:40:34;;;;;;;0.15;0.15;;;;;;;;;;4982951;28;20029;-72
2023/01/16 15:48:55;;;;;;;0.20;0.20;;;;;;;;;;4988862;28;20396;-72
2023/01/16 15:51:20;;;;;;;0.10;0.10;;;;;;;;;;4978615;28;20589;-72
2023/01/16 15:53:52;;;;;;;0.10;0.10;;;;;;;;;;4984303;28;20039;-73
2023/01/16 15:56:25;;;;;;;0.20;0.20;;;;;;;;;;4988747;28;20022;-73
2023/01/16 15:58:52;;;;;;;0.20;0.20;;;;;;;;;;4987910;28;20019;-72
2023/01/16 16:01:24;;;;;;;0.10;0.10;;;;;;;;;;4983363;28;20033;-72
2023/01/16 16:03:49;;;;;;;0.20;0.20;;;;;;;;;;4987537;28;20028;-72
2023/01/16 16:06:16;;;;;;;0.20;0.20;;;;;;;;;;4987992;28;20034;-73
2023/01/16 16:08:44;;;;;;;0.20;0.20;;;;;;;;;;4987888;28;20117;-73
2023/01/16 16:13:56;;;;;;;0.13;0.13;;;;;;;;;;4986570;28;20500;-73
2023/01/16 16:19:07;;;;;;;0.10;0.10;;;;;;;;;;4988569;28;20424;-72
2023/01/16 16:22:47;;;;;;;0.20;0.20;;;;;;;;;;4986399;28;20022;-72
2023/01/16 16:24:23;;;;;;;0.20;0.20;;;;;;;;;;4988549;28;20037;-72
2023/01/16 16:26:48;;;;;;;0.10;0.10;;;;;;;;;;4987552;28;20377;-72
2023/01/16 16:29:17;;;;;;;0.10;0.10;;;;;;;;;;4980953;28;20446;-72
2023/01/16 16:31:44;;;;;;;0.10;0.10;;;;;;;;;;4985392;28;20264;-72
2023/01/16 16:34:23;;;;;;;0.13;0.13;;;;;;;;;;4993814;28;20522;-73
2023/01/16 16:36:50;;;;;;;0.10;0.10;;;;;;;;;;4984845;28;20053;-73
2023/01/16 16:39:33;;;;;;;0.20;0.20;;;;;;;;;;4986523;28;20030;-73
2023/01/16 16:44:44;;;;;;;0.10;0.10;;;;;;;;;;4985027;28;20068;-73